createdAt,value
2019-05-07T00:01:23.813Z,6.20
2019-05-07T00:03:54.287Z,6.10
2019-05-07T00:06:24.782Z,6.10
2019-05-07T00:08:55.343Z,6.10
2019-05-07T00:11:26.001Z,6.00
2019-05-07T00:13:56.490Z,6.00
2019-05-07T00:16:27.217Z,6.00
2019-05-07T00:18:57.792Z,6.00
2019-05-07T00:21:28.283Z,5.90
2019-05-07T00:24:02.320Z,5.90
2019-05-07T00:26:32.890Z,5.90
2019-05-07T00:29:03.343Z,5.90
2019-05-07T00:31:33.810Z,5.90
2019-05-07T00:34:04.276Z,5.90
2019-05-07T00:36:46.181Z,5.80
2019-05-07T00:39:38.517Z,5.80
2019-05-07T00:42:18.586Z,5.70
2019-05-07T00:45:17.853Z,5.70
2019-05-07T00:47:42.735Z,5.60
2019-05-07T00:50:19.339Z,5.60
2019-05-07T00:52:49.844Z,5.60
2019-05-07T00:55:22.653Z,5.50
2019-05-07T00:57:52.710Z,5.50
2019-05-07T01:00:23.295Z,5.40
2019-05-07T01:02:53.803Z,5.40
2019-05-07T01:05:24.335Z,5.30
2019-05-07T01:07:54.859Z,5.30
2019-05-07T01:10:25.381Z,5.20
2019-05-07T01:12:58.899Z,5.20
2019-05-07T01:15:31.575Z,5.10
2019-05-07T01:18:02.698Z,5.10
2019-05-07T01:20:33.047Z,5.10
2019-05-07T01:23:03.639Z,5.00
2019-05-07T01:25:34.096Z,5.00
2019-05-07T01:28:04.630Z,5.00
2019-05-07T01:30:35.063Z,4.90
2019-05-07T01:33:15.930Z,4.90
2019-05-07T01:36:07.249Z,4.90
2019-05-07T01:38:37.388Z,4.80
2019-05-07T01:41:12.343Z,4.80
2019-05-07T01:43:42.888Z,4.70
2019-05-07T01:46:13.553Z,4.70
2019-05-07T01:48:44.413Z,4.60
2019-05-07T01:51:14.859Z,4.60
2019-05-07T01:53:45.417Z,4.60
2019-05-07T01:56:15.904Z,4.60
2019-05-07T01:58:47.662Z,4.50
2019-05-07T02:01:18.271Z,4.50
2019-05-07T02:04:16.747Z,4.50
2019-05-07T02:07:06.194Z,4.40
2019-05-07T02:09:47.446Z,4.40
2019-05-07T02:12:22.216Z,4.30
2019-05-07T02:14:53.079Z,4.30
2019-05-07T02:17:23.674Z,4.20
2019-05-07T02:19:54.153Z,4.10
2019-05-07T02:22:24.665Z,4.00
2019-05-07T02:24:55.264Z,4.00
2019-05-07T02:27:25.867Z,3.90
2019-05-07T02:29:56.322Z,3.80
2019-05-07T02:32:26.787Z,3.80
2019-05-07T02:34:57.281Z,3.70
2019-05-07T02:37:48.682Z,3.60
2019-05-07T02:40:27.849Z,3.60
2019-05-07T02:42:58.319Z,3.50
2019-05-07T02:45:48.867Z,3.40
2019-05-07T02:48:23.680Z,3.40
2019-05-07T02:51:04.147Z,3.30
2019-05-07T02:53:59.062Z,3.20
2019-05-07T02:56:29.491Z,3.20
2019-05-07T02:59:00.054Z,3.10
2019-05-07T03:01:33.291Z,3.10
2019-05-07T03:04:03.612Z,3.00
2019-05-07T03:06:34.433Z,3.00
2019-05-07T03:09:06.430Z,2.90
2019-05-07T03:11:39.043Z,2.90
2019-05-07T03:14:09.779Z,2.80
2019-05-07T03:16:47.610Z,2.70
2019-05-07T03:19:13.578Z,2.70
2019-05-07T03:21:58.272Z,2.60
2019-05-07T03:24:43.173Z,2.50
2019-05-07T03:27:14.154Z,2.50
2019-05-07T03:29:53.488Z,2.40
2019-05-07T03:32:49.144Z,2.30
2019-05-07T03:35:46.405Z,2.30
2019-05-07T03:38:17.063Z,2.30
2019-05-07T03:40:47.679Z,2.20
2019-05-07T03:43:18.404Z,2.20
2019-05-07T03:46:07.955Z,2.10
2019-05-07T03:48:39.417Z,2.10
2019-05-07T03:51:12.942Z,2.10
2019-05-07T03:53:43.548Z,2.10
2019-05-07T03:56:14.493Z,2.10
2019-05-07T03:58:45.006Z,2.00
2019-05-07T04:01:15.515Z,2.00
2019-05-07T04:03:46.043Z,2.00
2019-05-07T04:06:16.721Z,1.90
2019-05-07T04:08:49.463Z,1.90
2019-05-07T04:11:22.792Z,1.90
2019-05-07T04:13:53.481Z,1.90
2019-05-07T04:16:24.434Z,1.90
2019-05-07T04:18:54.896Z,1.90
2019-05-07T04:21:25.377Z,1.90
2019-05-07T04:24:13.722Z,2.00
2019-05-07T04:26:47.686Z,2.00
2019-05-07T04:29:18.122Z,2.00
2019-05-07T04:31:48.666Z,2.00
2019-05-07T04:34:24.670Z,2.10
2019-05-07T04:36:55.179Z,2.20
2019-05-07T04:39:25.690Z,2.20
2019-05-07T04:41:56.253Z,2.30
2019-05-07T04:44:26.728Z,2.40
2019-05-07T04:46:57.297Z,2.50
2019-05-07T04:49:27.803Z,2.50
2019-05-07T04:52:06.473Z,2.60
2019-05-07T04:54:36.984Z,2.60
2019-05-07T04:57:25.683Z,2.70
2019-05-07T04:59:58.487Z,2.80
2019-05-07T05:02:53.064Z,2.90
2019-05-07T05:05:25.633Z,3.00
2019-05-07T05:07:58.406Z,3.10
2019-05-07T05:10:30.409Z,3.20
2019-05-07T05:13:03.211Z,3.20
2019-05-07T05:15:34.035Z,3.30
2019-05-07T05:18:04.539Z,3.40
2019-05-07T05:20:55.191Z,3.60
2019-05-07T05:23:52.422Z,3.70
2019-05-07T05:26:22.906Z,3.80
2019-05-07T05:28:55.707Z,3.90
2019-05-07T05:31:27.222Z,4.00
2019-05-07T05:33:57.850Z,4.10
2019-05-07T05:36:29.573Z,4.20
2019-05-07T05:39:02.334Z,4.30
2019-05-07T05:41:35.180Z,4.40
2019-05-07T05:44:15.698Z,4.50
2019-05-07T05:46:46.532Z,4.60
2019-05-07T05:49:17.695Z,4.70
2019-05-07T05:51:58.083Z,4.80
2019-05-07T05:54:36.658Z,4.90
2019-05-07T05:57:25.379Z,5.00
2019-05-07T06:00:13.627Z,5.10
2019-05-07T06:03:22.733Z,5.20
2019-05-07T06:06:12.767Z,5.30
2019-05-07T06:08:52.503Z,5.40
2019-05-07T06:11:36.554Z,5.60
2019-05-07T06:14:33.042Z,5.70
2019-05-07T06:17:22.738Z,5.80
2019-05-07T06:20:12.673Z,6.00
2019-05-07T06:23:01.987Z,6.10
2019-05-07T06:25:33.428Z,6.30
2019-05-07T06:28:04.084Z,6.40
2019-05-07T06:30:34.530Z,6.60
2019-05-07T06:33:05.160Z,6.70
2019-05-07T06:35:35.620Z,6.90
2019-05-07T06:38:08.431Z,7.00
2019-05-07T06:40:56.683Z,7.10
2019-05-07T06:43:35.536Z,7.20
2019-05-07T06:46:06.576Z,7.30
2019-05-07T06:48:42.393Z,7.40
2019-05-07T06:51:09.589Z,7.50
2019-05-07T06:53:42.539Z,7.60
2019-05-07T06:56:13.051Z,7.70
2019-05-07T06:59:08.572Z,7.80
2019-05-07T07:02:02.331Z,8.00
2019-05-07T07:04:44.196Z,8.00
2019-05-07T07:07:37.031Z,8.10
2019-05-07T07:10:32.258Z,8.20
2019-05-07T07:13:02.531Z,8.30
2019-05-07T07:15:33.095Z,8.40
2019-05-07T07:18:03.595Z,8.40
2019-05-07T07:20:34.135Z,8.50
2019-05-07T07:23:04.828Z,8.60
2019-05-07T07:25:35.615Z,8.70
2019-05-07T07:28:07.368Z,8.80
2019-05-07T07:30:54.247Z,8.90
2019-05-07T07:33:27.253Z,8.90
2019-05-07T07:35:57.863Z,9.00
2019-05-07T07:38:33.999Z,9.20
2019-05-07T07:41:13.712Z,9.30
2019-05-07T07:43:44.333Z,9.30
2019-05-07T07:46:16.582Z,9.40
2019-05-07T07:48:47.334Z,9.50
2019-05-07T07:51:34.281Z,9.50
2019-05-07T07:53:53.127Z,9.60
2019-05-07T07:56:49.941Z,9.70
2019-05-07T07:59:38.263Z,9.80
2019-05-07T08:02:17.022Z,10.00
2019-05-07T08:04:48.770Z,10.10
2019-05-07T08:07:19.526Z,10.20
2019-05-07T08:09:52.016Z,10.30
2019-05-07T08:12:22.748Z,10.50
2019-05-07T08:14:53.563Z,10.60
2019-05-07T08:17:24.109Z,10.70
2019-05-07T08:19:54.615Z,10.90
2019-05-07T08:22:25.489Z,11.00
2019-05-07T08:24:56.027Z,11.20
2019-05-07T08:27:26.686Z,11.40
2019-05-07T08:29:57.593Z,11.60
2019-05-07T08:33:02.302Z,11.70
2019-05-07T08:35:42.285Z,11.90
2019-05-07T08:38:12.940Z,12.00
2019-05-07T08:40:43.910Z,12.10
2019-05-07T08:43:14.400Z,12.20
2019-05-07T08:46:13.026Z,12.20
2019-05-07T08:48:48.884Z,12.20
2019-05-07T08:51:19.425Z,12.20
2019-05-07T08:54:05.319Z,12.30
2019-05-07T08:56:37.501Z,12.30
2019-05-07T08:59:08.676Z,12.30
2019-05-07T09:01:43.273Z,12.40
2019-05-07T09:04:14.200Z,12.50
2019-05-07T09:06:44.712Z,12.70
2019-05-07T09:09:15.771Z,12.90
2019-05-07T09:11:46.293Z,13.00
2019-05-07T09:14:16.796Z,13.20
2019-05-07T09:16:47.800Z,13.40
2019-05-07T09:19:21.667Z,13.50
2019-05-07T09:21:52.784Z,13.70
2019-05-07T09:24:23.660Z,13.90
2019-05-07T09:27:02.757Z,14.10
2019-05-07T09:29:45.162Z,14.30
2019-05-07T09:32:22.771Z,14.40
2019-05-07T09:34:53.473Z,14.50
2019-05-07T09:37:27.359Z,14.60
2019-05-07T09:39:57.960Z,14.70
2019-05-07T09:42:28.904Z,14.80
2019-05-07T09:45:03.775Z,14.90
2019-05-07T09:47:34.591Z,15.00
2019-05-07T09:50:09.059Z,15.10
2019-05-07T09:52:42.932Z,15.10
2019-05-07T09:55:17.216Z,15.20
2019-05-07T09:57:46.104Z,15.20
2019-05-07T10:00:18.589Z,15.30
2019-05-07T10:02:49.093Z,15.30
2019-05-07T10:05:23.881Z,15.40
2019-05-07T10:07:58.629Z,15.40
2019-05-07T10:10:32.757Z,15.50
2019-05-07T10:13:29.641Z,15.50
2019-05-07T10:16:07.578Z,15.50
2019-05-07T10:18:38.991Z,15.70
2019-05-07T10:21:15.374Z,15.80
2019-05-07T10:23:46.163Z,15.90
2019-05-07T10:26:17.027Z,16.00
2019-05-07T10:28:47.533Z,16.00
2019-05-07T10:31:19.551Z,16.10
2019-05-07T10:33:52.405Z,16.10
2019-05-07T10:36:22.913Z,16.20
2019-05-07T10:38:53.571Z,16.40
2019-05-07T10:41:24.346Z,16.50
2019-05-07T10:43:55.125Z,16.70
2019-05-07T10:46:52.579Z,16.90
2019-05-07T10:49:26.936Z,17.00
2019-05-07T10:51:57.481Z,17.00
2019-05-07T10:54:28.150Z,16.90
2019-05-07T10:56:58.973Z,16.80
2019-05-07T10:59:30.999Z,16.60
2019-05-07T11:02:24.007Z,16.40
2019-05-07T11:04:54.803Z,16.30
2019-05-07T11:07:25.315Z,16.30
2019-05-07T11:09:55.830Z,16.30
2019-05-07T11:12:26.717Z,16.40
2019-05-07T11:14:57.475Z,16.60
2019-05-07T11:17:56.495Z,16.60
2019-05-07T11:20:28.600Z,16.60
2019-05-07T11:22:59.273Z,16.60
2019-05-07T11:25:29.884Z,16.60
2019-05-07T11:28:02.666Z,16.70
2019-05-07T11:30:33.918Z,16.80
2019-05-07T11:33:04.701Z,16.80
2019-05-07T11:35:35.205Z,16.90
2019-05-07T11:38:17.807Z,17.00
2019-05-07T11:40:38.358Z,17.10
2019-05-07T11:43:24.352Z,17.10
2019-05-07T11:46:18.871Z,17.30
2019-05-07T11:49:01.402Z,17.60
2019-05-07T11:51:42.497Z,18.00
2019-05-07T11:54:15.153Z,18.50
2019-05-07T11:56:45.887Z,18.90
2019-05-07T11:59:16.456Z,19.20
2019-05-07T12:01:52.613Z,19.40
2019-05-07T12:04:23.371Z,19.60
2019-05-07T12:06:53.887Z,19.70
2019-05-07T12:09:24.476Z,19.80
2019-05-07T12:11:55.027Z,19.80
2019-05-07T12:14:31.270Z,19.80
2019-05-07T12:16:57.763Z,19.90
2019-05-07T12:19:28.242Z,20.10
2019-05-07T12:21:59.737Z,20.40
2019-05-07T12:24:32.702Z,20.70
2019-05-07T12:27:02.842Z,20.90
2019-05-07T12:29:33.317Z,21.00
2019-05-07T12:32:25.828Z,20.90
2019-05-07T12:35:02.065Z,21.10
2019-05-07T12:37:32.153Z,21.40
2019-05-07T12:40:02.743Z,21.40
2019-05-07T12:42:33.254Z,21.80
2019-05-07T12:45:03.736Z,22.30
2019-05-07T12:47:34.268Z,22.90
2019-05-07T12:50:04.976Z,23.40
2019-05-07T12:52:53.263Z,23.80
2019-05-07T12:55:34.242Z,24.60
2019-05-07T12:58:04.751Z,25.50
2019-05-07T13:01:06.248Z,26.40
2019-05-07T13:03:45.117Z,27.60
2019-05-07T13:06:15.618Z,28.40
2019-05-07T13:08:46.118Z,29.00
2019-05-07T13:11:16.611Z,29.70
2019-05-07T13:13:47.066Z,30.40
2019-05-07T13:16:17.524Z,31.10
2019-05-07T13:18:48.162Z,31.60
2019-05-07T13:21:18.639Z,31.70
2019-05-07T13:23:49.144Z,31.40
2019-05-07T13:26:24.375Z,31.10
2019-05-07T13:28:54.085Z,30.60
2019-05-07T13:31:27.619Z,30.00
2019-05-07T13:33:58.731Z,29.40
2019-05-07T13:36:29.832Z,29.00
2019-05-07T13:39:23.311Z,28.70
2019-05-07T13:42:14.617Z,28.50
2019-05-07T13:44:53.918Z,28.50
2019-05-07T13:47:31.147Z,28.60
2019-05-07T13:50:02.738Z,28.90
2019-05-07T13:52:34.185Z,29.30
2019-05-07T13:55:06.796Z,29.80
2019-05-07T13:57:37.312Z,30.20
2019-05-07T14:00:12.814Z,30.50
2019-05-07T14:02:43.516Z,30.40
2019-05-07T14:05:14.438Z,30.30
2019-05-07T14:07:45.373Z,30.00
2019-05-07T14:10:18.337Z,29.60
2019-05-07T14:12:49.325Z,29.10
2019-05-07T14:15:20.234Z,28.50
2019-05-07T14:17:52.639Z,27.90
2019-05-07T14:20:23.006Z,27.40
2019-05-07T14:22:53.516Z,26.90
2019-05-07T14:25:24.312Z,26.50
2019-05-07T14:27:58.768Z,26.20
2019-05-07T14:30:29.862Z,26.20
2019-05-07T14:33:06.164Z,26.00
2019-05-07T14:36:08.603Z,25.80
2019-05-07T14:38:43.457Z,25.60
2019-05-07T14:41:13.968Z,25.70
2019-05-07T14:43:52.218Z,26.00
2019-05-07T14:46:22.461Z,26.50
2019-05-07T14:48:53.020Z,27.10
2019-05-07T14:51:23.624Z,27.70
2019-05-07T14:53:54.154Z,28.50
2019-05-07T14:56:24.857Z,29.30
2019-05-07T14:58:55.356Z,30.20
2019-05-07T15:01:26.196Z,30.90
2019-05-07T15:03:57.216Z,31.70
2019-05-07T15:06:28.096Z,32.20
2019-05-07T15:09:00.277Z,32.80
2019-05-07T15:11:31.865Z,33.20
2019-05-07T15:14:02.708Z,33.70
2019-05-07T15:16:33.400Z,33.90
2019-05-07T15:19:04.739Z,34.10
2019-05-07T15:21:35.360Z,33.90
2019-05-07T15:24:05.900Z,33.70
2019-05-07T15:26:36.859Z,33.10
2019-05-07T15:29:12.085Z,32.30
2019-05-07T15:32:03.429Z,31.80
2019-05-07T15:34:34.002Z,31.70
2019-05-07T15:37:04.921Z,31.80
2019-05-07T15:39:35.518Z,32.00
2019-05-07T15:42:06.000Z,32.30
2019-05-07T15:44:36.506Z,32.50
2019-05-07T15:47:11.977Z,32.60
2019-05-07T15:49:42.543Z,32.70
2019-05-07T15:52:22.145Z,32.70
2019-05-07T15:54:53.810Z,32.80
2019-05-07T15:57:27.383Z,32.80
2019-05-07T16:00:06.299Z,32.80
2019-05-07T16:02:45.140Z,32.70
2019-05-07T16:05:14.989Z,32.60
2019-05-07T16:07:47.218Z,32.50
2019-05-07T16:10:17.797Z,32.40
2019-05-07T16:12:48.874Z,32.30
2019-05-07T16:15:19.639Z,32.10
2019-05-07T16:17:56.121Z,31.70
2019-05-07T16:20:26.647Z,31.10
2019-05-07T16:23:13.919Z,30.40
2019-05-07T16:25:34.031Z,29.70
2019-05-07T16:28:05.027Z,29.10
2019-05-07T16:30:35.828Z,28.70
2019-05-07T16:33:06.749Z,28.20
2019-05-07T16:35:37.568Z,27.60
2019-05-07T16:38:08.087Z,27.10
2019-05-07T16:40:38.795Z,26.70
2019-05-07T16:43:11.966Z,26.20
2019-05-07T16:45:42.951Z,25.80
2019-05-07T16:48:13.485Z,25.30
2019-05-07T16:50:44.011Z,24.90
2019-05-07T16:53:26.583Z,24.50
2019-05-07T16:55:46.815Z,24.10
2019-05-07T16:58:26.340Z,23.90
2019-05-07T17:01:01.808Z,23.50
2019-05-07T17:03:43.072Z,23.20
2019-05-07T17:06:14.401Z,22.80
2019-05-07T17:08:55.549Z,22.40
2019-05-07T17:11:27.897Z,22.10
2019-05-07T17:14:02.351Z,21.60
2019-05-07T17:16:33.276Z,21.20
2019-05-07T17:19:04.398Z,20.70
2019-05-07T17:21:34.857Z,20.30
2019-05-07T17:24:05.330Z,20.00
2019-05-07T17:26:35.843Z,19.60
2019-05-07T17:29:07.827Z,19.20
2019-05-07T17:31:38.303Z,18.90
2019-05-07T17:34:08.837Z,18.50
2019-05-07T17:36:39.507Z,18.10
2019-05-07T17:39:12.356Z,17.80
2019-05-07T17:41:44.196Z,17.50
2019-05-07T17:44:14.912Z,17.20
2019-05-07T17:46:46.775Z,17.00
2019-05-07T17:49:18.715Z,16.70
2019-05-07T17:51:52.651Z,16.50
2019-05-07T17:54:31.881Z,16.20
2019-05-07T17:57:02.777Z,16.00
2019-05-07T17:59:57.300Z,15.80
2019-05-07T18:02:38.455Z,15.50
2019-05-07T18:05:11.809Z,15.30
2019-05-07T18:07:42.203Z,15.10
2019-05-07T18:10:15.499Z,14.90
2019-05-07T18:12:51.136Z,14.70
2019-05-07T18:15:25.526Z,14.60
2019-05-07T18:18:03.980Z,14.40
2019-05-07T18:23:23.271Z,14.00
2019-05-07T18:25:59.285Z,13.90
2019-05-07T18:28:38.598Z,13.70
2019-05-07T18:31:22.261Z,13.50
2019-05-07T18:33:59.797Z,13.20
2019-05-07T18:36:42.203Z,13.00
2019-05-07T18:39:22.641Z,12.80
2019-05-07T18:42:06.543Z,12.60
2019-05-07T18:44:38.132Z,12.40
2019-05-07T18:47:12.920Z,12.20
2019-05-07T18:49:48.182Z,12.00
2019-05-07T18:52:22.817Z,11.80
2019-05-07T18:54:56.616Z,11.60
2019-05-07T18:57:32.672Z,11.50
2019-05-07T19:00:08.167Z,11.30
2019-05-07T19:02:42.690Z,11.10
2019-05-07T19:05:24.553Z,11.00
2019-05-07T19:08:05.336Z,10.80
2019-05-07T19:10:42.899Z,10.70
2019-05-07T19:13:15.880Z,10.50
2019-05-07T19:15:48.285Z,10.30
2019-05-07T19:18:23.673Z,10.20
2019-05-07T19:20:59.119Z,10.00
2019-05-07T19:23:42.483Z,9.90
2019-05-07T19:26:18.425Z,9.80
2019-05-07T19:28:50.397Z,9.60
2019-05-07T19:31:22.048Z,9.50
2019-05-07T19:33:53.899Z,9.40
2019-05-07T19:36:32.088Z,9.20
2019-05-07T19:39:04.155Z,9.10
2019-05-07T19:41:49.237Z,9.00
2019-05-07T19:44:44.953Z,8.90
2019-05-07T19:47:16.548Z,8.80
2019-05-07T19:49:52.700Z,8.70
2019-05-07T19:52:29.280Z,8.70
2019-05-07T19:55:04.812Z,8.60
2019-05-07T19:57:45.804Z,8.50
2019-05-07T20:00:18.762Z,8.40
2019-05-07T20:02:59.102Z,8.30
2019-05-07T20:05:32.167Z,8.20
2019-05-07T20:08:12.004Z,8.20
2019-05-07T20:10:52.043Z,8.10
2019-05-07T20:13:28.779Z,8.10
2019-05-07T20:16:33.894Z,8.00
2019-05-07T20:19:23.063Z,7.90
2019-05-07T20:21:55.289Z,7.80
2019-05-07T20:24:27.163Z,7.80
2019-05-07T20:26:58.401Z,7.70
2019-05-07T20:29:32.315Z,7.60
2019-05-07T20:32:06.558Z,7.50
2019-05-07T20:34:38.477Z,7.40
2019-05-07T20:37:12.737Z,7.40
2019-05-07T20:39:45.410Z,7.30
2019-05-07T20:42:16.273Z,7.20
2019-05-07T20:44:46.902Z,7.10
2019-05-07T20:47:18.676Z,7.10
2019-05-07T20:49:50.495Z,7.00
2019-05-07T20:52:22.913Z,6.90
2019-05-07T20:55:12.905Z,6.80
2019-05-07T20:57:45.898Z,6.80
2019-05-07T21:00:24.995Z,6.70
2019-05-07T21:03:14.722Z,6.60
2019-05-07T21:05:49.023Z,6.50
2019-05-07T21:08:19.863Z,6.40
2019-05-07T21:10:53.253Z,6.40
2019-05-07T21:13:31.022Z,6.30
2019-05-07T21:15:55.608Z,6.30
2019-05-07T21:18:27.661Z,6.20
2019-05-07T21:20:58.145Z,6.20
2019-05-07T21:23:29.172Z,6.20
2019-05-07T21:26:01.959Z,6.10
2019-05-07T21:28:32.495Z,6.10
2019-05-07T21:31:04.063Z,6.00
2019-05-07T21:33:35.827Z,6.00
2019-05-07T21:36:07.737Z,5.90
2019-05-07T21:38:38.307Z,5.90
2019-05-07T21:41:09.116Z,5.80
2019-05-07T21:43:43.088Z,5.80
2019-05-07T21:46:12.983Z,5.70
2019-05-07T21:48:43.692Z,5.70
2019-05-07T21:51:16.402Z,5.60
2019-05-07T21:54:03.530Z,5.60
2019-05-07T21:57:02.137Z,5.50
2019-05-07T21:59:35.739Z,5.40
2019-05-07T22:02:13.273Z,5.30
2019-05-07T22:04:43.798Z,5.30
2019-05-07T22:07:14.458Z,5.20
2019-05-07T22:09:45.100Z,5.20
2019-05-07T22:12:15.656Z,5.10
2019-05-07T22:14:47.091Z,5.10
2019-05-07T22:17:17.580Z,5.10
2019-05-07T22:19:48.139Z,5.00
2019-05-07T22:22:18.698Z,5.00
2019-05-07T22:24:49.535Z,4.90
2019-05-07T22:27:22.097Z,4.90
2019-05-07T22:29:52.828Z,4.80
2019-05-07T22:32:33.962Z,4.70
2019-05-07T22:35:27.808Z,4.70
2019-05-07T22:37:58.282Z,4.60
2019-05-07T22:40:28.900Z,4.60
2019-05-07T22:43:02.158Z,4.50
2019-05-07T22:45:32.799Z,4.50
2019-05-07T22:48:03.271Z,4.40
2019-05-07T22:50:33.797Z,4.40
2019-05-07T22:53:04.445Z,4.40
2019-05-07T22:55:34.938Z,4.30
2019-05-07T22:58:13.997Z,4.30
2019-05-07T23:00:49.624Z,4.20
2019-05-07T23:03:20.086Z,4.20
2019-05-07T23:05:52.336Z,4.10
2019-05-07T23:08:22.933Z,4.10
2019-05-07T23:10:53.484Z,4.10
2019-05-07T23:13:24.006Z,4.10
2019-05-07T23:15:54.477Z,4.00
2019-05-07T23:18:24.971Z,4.00
2019-05-07T23:20:55.557Z,3.90
2019-05-07T23:23:26.055Z,3.90
2019-05-07T23:25:56.524Z,3.80
2019-05-07T23:28:28.876Z,3.80
2019-05-07T23:30:59.276Z,3.80
2019-05-07T23:33:31.940Z,3.80
2019-05-07T23:36:02.303Z,3.70
2019-05-07T23:38:32.922Z,3.70
2019-05-07T23:41:16.719Z,3.70
2019-05-07T23:44:06.133Z,3.60
2019-05-07T23:46:36.620Z,3.60
2019-05-07T23:49:07.138Z,3.50
2019-05-07T23:51:37.703Z,3.60
2019-05-07T23:54:08.579Z,3.60
2019-05-07T23:56:39.127Z,3.60
2019-05-07T23:59:09.674Z,3.70
